sensor_id;sensor_type;location;lat;lon;timestamp;pressure;altitude;pressure_sealevel;temperature;humidity
62508;BME280;48556;51.972;4.624;2023-02-15T00:01:59;102898.63;;;7.91;67.16
62508;BME280;48556;51.972;4.624;2023-02-15T00:04:25;102895.78;;;7.85;67.68
62508;BME280;48556;51.972;4.624;2023-02-15T00:07:18;102897.56;;;7.86;67.04
62508;BME280;48556;51.972;4.624;2023-02-15T00:09:47;102897.72;;;7.63;67.31
62508;BME280;48556;51.972;4.624;2023-02-15T00:12:14;102899.00;;;7.76;66.81
62508;BME280;48556;51.972;4.624;2023-02-15T00:14:44;102887.50;;;7.73;66.95
62508;BME280;48556;51.972;4.624;2023-02-15T00:17:10;102885.63;;;7.68;66.91
62508;BME280;48556;51.972;4.624;2023-02-15T00:19:36;102873.81;;;7.81;66.67
62508;BME280;48556;51.972;4.624;2023-02-15T00:22:01;102873.91;;;7.83;66.88
62508;BME280;48556;51.972;4.624;2023-02-15T00:24:27;102879.06;;;7.54;68.64
62508;BME280;48556;51.972;4.624;2023-02-15T00:26:53;102871.69;;;7.42;68.61
62508;BME280;48556;51.972;4.624;2023-02-15T00:29:19;102869.31;;;7.50;68.62
62508;BME280;48556;51.972;4.624;2023-02-15T00:31:46;102869.94;;;7.68;67.54
62508;BME280;48556;51.972;4.624;2023-02-15T00:34:42;102867.63;;;7.52;67.84
62508;BME280;48556;51.972;4.624;2023-02-15T00:37:08;102873.00;;;7.55;68.03
62508;BME280;48556;51.972;4.624;2023-02-15T00:39:37;102858.44;;;7.38;67.61
62508;BME280;48556;51.972;4.624;2023-02-15T00:42:02;102865.56;;;7.42;67.28
62508;BME280;48556;51.972;4.624;2023-02-15T00:44:32;102864.63;;;7.40;67.40
62508;BME280;48556;51.972;4.624;2023-02-15T00:46:58;102862.41;;;7.52;67.04
62508;BME280;48556;51.972;4.624;2023-02-15T00:49:24;102868.09;;;7.39;66.81
62508;BME280;48556;51.972;4.624;2023-02-15T00:51:49;102860.19;;;7.37;67.05
62508;BME280;48556;51.972;4.624;2023-02-15T00:54:15;102871.00;;;7.48;66.59
62508;BME280;48556;51.972;4.624;2023-02-15T00:56:40;102870.59;;;7.35;66.67
62508;BME280;48556;51.972;4.624;2023-02-15T00:59:08;102866.19;;;7.34;66.63
62508;BME280;48556;51.972;4.624;2023-02-15T01:01:34;102868.34;;;7.21;67.14
62508;BME280;48556;51.972;4.624;2023-02-15T01:03:59;102857.81;;;7.19;66.81
62508;BME280;48556;51.972;4.624;2023-02-15T01:06:25;102859.44;;;7.15;66.83
62508;BME280;48556;51.972;4.624;2023-02-15T01:08:53;102863.94;;;7.19;66.96
62508;BME280;48556;51.972;4.624;2023-02-15T01:11:21;102863.25;;;7.25;66.76
62508;BME280;48556;51.972;4.624;2023-02-15T01:13:49;102858.03;;;7.25;67.08
62508;BME280;48556;51.972;4.624;2023-02-15T01:16:16;102850.72;;;7.15;66.91
62508;BME280;48556;51.972;4.624;2023-02-15T01:18:41;102843.78;;;7.17;67.52
62508;BME280;48556;51.972;4.624;2023-02-15T01:21:21;102838.78;;;7.23;67.22
62508;BME280;48556;51.972;4.624;2023-02-15T01:23:47;102841.16;;;7.17;67.65
62508;BME280;48556;51.972;4.624;2023-02-15T01:26:13;102838.44;;;7.14;67.93
62508;BME280;48556;51.972;4.624;2023-02-15T01:28:40;102837.53;;;7.12;68.04
62508;BME280;48556;51.972;4.624;2023-02-15T01:31:12;102836.47;;;7.07;68.13
62508;BME280;48556;51.972;4.624;2023-02-15T01:33:40;102832.13;;;7.07;67.45
62508;BME280;48556;51.972;4.624;2023-02-15T01:36:06;102831.34;;;7.10;68.00
62508;BME280;48556;51.972;4.624;2023-02-15T01:38:32;102825.31;;;7.12;67.95
62508;BME280;48556;51.972;4.624;2023-02-15T01:40:57;102822.75;;;7.14;68.32
62508;BME280;48556;51.972;4.624;2023-02-15T01:43:45;102825.47;;;7.17;68.16
62508;BME280;48556;51.972;4.624;2023-02-15T01:46:16;102823.63;;;7.14;68.54
62508;BME280;48556;51.972;4.624;2023-02-15T01:48:48;102822.81;;;7.15;68.63
62508;BME280;48556;51.972;4.624;2023-02-15T01:51:21;102829.69;;;7.12;68.47
62508;BME280;48556;51.972;4.624;2023-02-15T01:53:54;102827.72;;;7.32;67.49
62508;BME280;48556;51.972;4.624;2023-02-15T01:56:30;102820.78;;;7.07;68.31
62508;BME280;48556;51.972;4.624;2023-02-15T01:59:07;102820.00;;;7.09;68.28
62508;BME280;48556;51.972;4.624;2023-02-15T02:01:35;102819.22;;;7.12;67.46
62508;BME280;48556;51.972;4.624;2023-02-15T02:06:37;102803.00;;;6.96;67.76
62508;BME280;48556;51.972;4.624;2023-02-15T02:09:04;102810.66;;;6.92;67.67
62508;BME280;48556;51.972;4.624;2023-02-15T02:11:31;102802.88;;;6.93;67.77
62508;BME280;48556;51.972;4.624;2023-02-15T02:13:57;102798.22;;;6.84;67.88
62508;BME280;48556;51.972;4.624;2023-02-15T02:19:10;102789.53;;;6.86;67.42
62508;BME280;48556;51.972;4.624;2023-02-15T02:31:11;102775.34;;;6.53;67.97
62508;BME280;48556;51.972;4.624;2023-02-15T02:34:07;102782.84;;;6.44;68.75
62508;BME280;48556;51.972;4.624;2023-02-15T02:37:02;102782.31;;;6.54;68.85
62508;BME280;48556;51.972;4.624;2023-02-15T02:39:58;102771.91;;;6.56;69.08
62508;BME280;48556;51.972;4.624;2023-02-15T02:42:43;102768.47;;;6.57;69.36
62508;BME280;48556;51.972;4.624;2023-02-15T02:45:28;102765.28;;;6.65;68.94
62508;BME280;48556;51.972;4.624;2023-02-15T02:48:11;102754.97;;;6.69;68.37
62508;BME280;48556;51.972;4.624;2023-02-15T02:50:39;102760.16;;;6.67;68.33
62508;BME280;48556;51.972;4.624;2023-02-15T02:53:05;102761.69;;;6.62;68.26
62508;BME280;48556;51.972;4.624;2023-02-15T02:55:38;102747.53;;;6.55;67.85
62508;BME280;48556;51.972;4.624;2023-02-15T02:58:09;102742.19;;;6.52;67.76
62508;BME280;48556;51.972;4.624;2023-02-15T03:00:44;102739.72;;;6.57;67.73
62508;BME280;48556;51.972;4.624;2023-02-15T03:03:37;102752.66;;;6.52;68.11
62508;BME280;48556;51.972;4.624;2023-02-15T03:06:51;102741.22;;;6.50;67.94
62508;BME280;48556;51.972;4.624;2023-02-15T03:11:47;102742.28;;;6.55;67.71
62508;BME280;48556;51.972;4.624;2023-02-15T03:14:18;102738.56;;;6.48;67.61
62508;BME280;48556;51.972;4.624;2023-02-15T03:16:51;102742.19;;;6.52;67.41
62508;BME280;48556;51.972;4.624;2023-02-15T03:19:26;102734.97;;;6.45;67.09
62508;BME280;48556;51.972;4.624;2023-02-15T03:22:12;102742.69;;;6.42;67.25
62508;BME280;48556;51.972;4.624;2023-02-15T03:27:22;102734.47;;;6.55;66.63
62508;BME280;48556;51.972;4.624;2023-02-15T03:29:55;102739.28;;;6.44;66.50
62508;BME280;48556;51.972;4.624;2023-02-15T03:32:32;102722.19;;;6.28;67.05
62508;BME280;48556;51.972;4.624;2023-02-15T03:35:00;102729.22;;;6.29;67.06
62508;BME280;48556;51.972;4.624;2023-02-15T03:37:35;102727.19;;;6.22;67.43
62508;BME280;48556;51.972;4.624;2023-02-15T03:40:19;102718.47;;;6.22;67.67
62508;BME280;48556;51.972;4.624;2023-02-15T03:46:12;102717.19;;;6.10;67.44
62508;BME280;48556;51.972;4.624;2023-02-15T03:49:12;102716.84;;;6.01;67.37
62508;BME280;48556;51.972;4.624;2023-02-15T03:51:44;102714.28;;;6.03;67.91
62508;BME280;48556;51.972;4.624;2023-02-15T03:54:32;102718.06;;;6.11;67.37
62508;BME280;48556;51.972;4.624;2023-02-15T03:57:15;102716.31;;;6.10;67.84
62508;BME280;48556;51.972;4.624;2023-02-15T04:00:09;102711.09;;;6.10;68.24
62508;BME280;48556;51.972;4.624;2023-02-15T04:05:40;102698.75;;;6.06;68.14
62508;BME280;48556;51.972;4.624;2023-02-15T04:08:06;102700.97;;;5.96;68.30
62508;BME280;48556;51.972;4.624;2023-02-15T04:10:32;102695.41;;;6.10;68.13
62508;BME280;48556;51.972;4.624;2023-02-15T04:13:16;102689.28;;;6.09;68.85
62508;BME280;48556;51.972;4.624;2023-02-15T04:15:41;102689.72;;;6.22;69.12
62508;BME280;48556;51.972;4.624;2023-02-15T04:18:25;102687.06;;;6.20;70.60
62508;BME280;48556;51.972;4.624;2023-02-15T04:21:09;102684.09;;;6.11;71.80
62508;BME280;48556;51.972;4.624;2023-02-15T04:23:53;102682.47;;;5.90;74.07
62508;BME280;48556;51.972;4.624;2023-02-15T04:26:42;102684.84;;;6.07;74.57
62508;BME280;48556;51.972;4.624;2023-02-15T04:29:08;102679.22;;;5.96;75.55
62508;BME280;48556;51.972;4.624;2023-02-15T04:31:33;102680.81;;;5.92;76.04
62508;BME280;48556;51.972;4.624;2023-02-15T04:33:59;102678.91;;;5.88;76.79
62508;BME280;48556;51.972;4.624;2023-02-15T04:36:24;102681.31;;;5.59;79.38
62508;BME280;48556;51.972;4.624;2023-02-15T04:38:50;102681.81;;;5.49;80.15
62508;BME280;48556;51.972;4.624;2023-02-15T04:41:15;102687.56;;;5.87;78.92
62508;BME280;48556;51.972;4.624;2023-02-15T04:43:41;102682.28;;;5.86;79.34
62508;BME280;48556;51.972;4.624;2023-02-15T04:46:06;102675.28;;;6.07;78.14
62508;BME280;48556;51.972;4.624;2023-02-15T04:48:32;102678.28;;;6.18;77.84
62508;BME280;48556;51.972;4.624;2023-02-15T04:51:04;102678.84;;;6.33;76.63
62508;BME280;48556;51.972;4.624;2023-02-15T04:53:30;102681.81;;;6.44;75.99
62508;BME280;48556;51.972;4.624;2023-02-15T04:55:55;102679.97;;;6.42;75.90
62508;BME280;48556;51.972;4.624;2023-02-15T04:58:21;102665.97;;;6.65;74.75
62508;BME280;48556;51.972;4.624;2023-02-15T05:00:46;102667.66;;;6.63;74.31
62508;BME280;48556;51.972;4.624;2023-02-15T05:03:12;102660.53;;;6.59;74.93
62508;BME280;48556;51.972;4.624;2023-02-15T05:05:39;102667.66;;;6.63;74.34
62508;BME280;48556;51.972;4.624;2023-02-15T05:08:05;102672.88;;;6.63;74.22
62508;BME280;48556;51.972;4.624;2023-02-15T05:10:32;102670.41;;;6.68;73.41
62508;BME280;48556;51.972;4.624;2023-02-15T05:12:58;102671.59;;;6.78;72.66
62508;BME280;48556;51.972;4.624;2023-02-15T05:15:24;102676.16;;;6.83;72.02
62508;BME280;48556;51.972;4.624;2023-02-15T05:17:49;102660.44;;;6.56;72.99
62508;BME280;48556;51.972;4.624;2023-02-15T05:20:15;102661.69;;;6.67;72.95
62508;BME280;48556;51.972;4.624;2023-02-15T05:22:40;102654.38;;;6.57;72.70
62508;BME280;48556;51.972;4.624;2023-02-15T05:25:08;102651.88;;;6.60;72.47
62508;BME280;48556;51.972;4.624;2023-02-15T05:27:52;102665.19;;;6.68;72.22
62508;BME280;48556;51.972;4.624;2023-02-15T05:30:36;102650.09;;;6.59;72.29
62508;BME280;48556;51.972;4.624;2023-02-15T05:33:02;102650.41;;;6.69;72.31
62508;BME280;48556;51.972;4.624;2023-02-15T05:35:27;102642.50;;;6.67;72.11
62508;BME280;48556;51.972;4.624;2023-02-15T05:37:53;102646.78;;;6.65;72.39
62508;BME280;48556;51.972;4.624;2023-02-15T05:40:20;102639.91;;;6.67;73.11
62508;BME280;48556;51.972;4.624;2023-02-15T05:42:50;102644.50;;;6.74;73.18
62508;BME280;48556;51.972;4.624;2023-02-15T05:45:17;102641.66;;;6.68;72.99
62508;BME280;48556;51.972;4.624;2023-02-15T05:47:43;102648.84;;;6.75;73.30
62508;BME280;48556;51.972;4.624;2023-02-15T05:50:09;102644.94;;;6.62;73.28
62508;BME280;48556;51.972;4.624;2023-02-15T05:52:35;102643.81;;;6.80;73.10
62508;BME280;48556;51.972;4.624;2023-02-15T05:55:02;102644.50;;;6.74;73.52
62508;BME280;48556;51.972;4.624;2023-02-15T05:57:30;102639.94;;;6.69;73.37
62508;BME280;48556;51.972;4.624;2023-02-15T05:59:56;102643.47;;;6.71;72.92
62508;BME280;48556;51.972;4.624;2023-02-15T06:02:21;102647.44;;;6.58;73.38
62508;BME280;48556;51.972;4.624;2023-02-15T06:04:47;102639.03;;;6.68;73.52
62508;BME280;48556;51.972;4.624;2023-02-15T06:07:13;102641.38;;;6.86;72.68
62508;BME280;48556;51.972;4.624;2023-02-15T06:09:38;102644.69;;;6.80;72.05
62508;BME280;48556;51.972;4.624;2023-02-15T06:12:04;102636.53;;;6.71;71.76
62508;BME280;48556;51.972;4.624;2023-02-15T06:14:30;102637.75;;;6.55;71.84
62508;BME280;48556;51.972;4.624;2023-02-15T06:16:55;102639.72;;;6.11;73.47
62508;BME280;48556;51.972;4.624;2023-02-15T06:19:23;102641.59;;;5.91;74.36
62508;BME280;48556;51.972;4.624;2023-02-15T06:21:49;102644.06;;;6.10;73.99
62508;BME280;48556;51.972;4.624;2023-02-15T06:24:15;102640.91;;;5.96;74.33
62508;BME280;48556;51.972;4.624;2023-02-15T06:26:41;102642.47;;;6.14;74.01
62508;BME280;48556;51.972;4.624;2023-02-15T06:29:06;102640.72;;;6.14;73.85
62508;BME280;48556;51.972;4.624;2023-02-15T06:31:32;102642.66;;;6.20;72.92
62508;BME280;48556;51.972;4.624;2023-02-15T06:33:57;102636.75;;;6.00;74.45
62508;BME280;48556;51.972;4.624;2023-02-15T06:36:30;102652.47;;;5.79;75.42
62508;BME280;48556;51.972;4.624;2023-02-15T06:38:57;102644.31;;;5.94;75.00
62508;BME280;48556;51.972;4.624;2023-02-15T06:41:23;102644.19;;;5.67;76.28
62508;BME280;48556;51.972;4.624;2023-02-15T06:43:49;102638.00;;;5.64;76.60
62508;BME280;48556;51.972;4.624;2023-02-15T06:46:15;102642.31;;;5.62;77.06
62508;BME280;48556;51.972;4.624;2023-02-15T06:48:42;102636.78;;;5.79;76.58
62508;BME280;48556;51.972;4.624;2023-02-15T06:51:07;102630.28;;;5.68;75.99
62508;BME280;48556;51.972;4.624;2023-02-15T06:53:33;102639.13;;;5.47;77.99
62508;BME280;48556;51.972;4.624;2023-02-15T06:56:07;102629.44;;;5.44;77.85
62508;BME280;48556;51.972;4.624;2023-02-15T06:58:40;102625.94;;;4.99;79.83
62508;BME280;48556;51.972;4.624;2023-02-15T07:01:09;102632.88;;;4.77;80.26
62508;BME280;48556;51.972;4.624;2023-02-15T07:03:36;102629.09;;;5.35;78.46
62508;BME280;48556;51.972;4.624;2023-02-15T07:06:03;102629.78;;;5.31;78.83
62508;BME280;48556;51.972;4.624;2023-02-15T07:08:48;102627.00;;;5.49;78.15
62508;BME280;48556;51.972;4.624;2023-02-15T07:11:14;102620.19;;;5.30;77.86
62508;BME280;48556;51.972;4.624;2023-02-15T07:13:58;102630.03;;;5.14;79.30
62508;BME280;48556;51.972;4.624;2023-02-15T07:16:23;102632.00;;;5.43;78.80
62508;BME280;48556;51.972;4.624;2023-02-15T07:18:49;102632.06;;;5.44;78.13
62508;BME280;48556;51.972;4.624;2023-02-15T07:21:15;102616.47;;;5.46;77.67
62508;BME280;48556;51.972;4.624;2023-02-15T07:23:41;102621.91;;;5.07;79.55
62508;BME280;48556;51.972;4.624;2023-02-15T07:26:07;102623.00;;;5.35;79.68
62508;BME280;48556;51.972;4.624;2023-02-15T07:28:34;102622.59;;;5.48;78.71
62508;BME280;48556;51.972;4.624;2023-02-15T07:31:02;102622.59;;;5.48;78.55
62508;BME280;48556;51.972;4.624;2023-02-15T07:33:27;102620.25;;;5.54;78.74
62508;BME280;48556;51.972;4.624;2023-02-15T07:35:57;102618.00;;;5.65;78.62
62508;BME280;48556;51.972;4.624;2023-02-15T07:38:24;102614.03;;;5.75;78.04
62508;BME280;48556;51.972;4.624;2023-02-15T07:40:50;102616.63;;;5.75;77.84
62508;BME280;48556;51.972;4.624;2023-02-15T07:43:16;102619.03;;;5.93;77.41
62508;BME280;48556;51.972;4.624;2023-02-15T07:45:43;102609.81;;;6.03;77.21
62508;BME280;48556;51.972;4.624;2023-02-15T07:48:09;102602.53;;;6.18;76.87
62508;BME280;48556;51.972;4.624;2023-02-15T07:50:34;102610.50;;;6.21;76.65
62508;BME280;48556;51.972;4.624;2023-02-15T07:53:04;102610.31;;;6.42;75.91
62508;BME280;48556;51.972;4.624;2023-02-15T07:55:30;102602.44;;;6.41;75.86
62508;BME280;48556;51.972;4.624;2023-02-15T07:57:56;102601.47;;;6.64;75.45
62508;BME280;48556;51.972;4.624;2023-02-15T08:00:22;102598.72;;;6.61;75.53
62508;BME280;48556;51.972;4.624;2023-02-15T08:02:59;102597.41;;;6.47;75.53
62508;BME280;48556;51.972;4.624;2023-02-15T08:05:41;102591.19;;;6.71;75.38
62508;BME280;48556;51.972;4.624;2023-02-15T08:08:08;102585.88;;;6.67;75.79
62508;BME280;48556;51.972;4.624;2023-02-15T08:10:35;102592.94;;;6.44;76.50
62508;BME280;48556;51.972;4.624;2023-02-15T08:13:19;102593.47;;;6.08;78.09
62508;BME280;48556;51.972;4.624;2023-02-15T08:15:50;102582.25;;;6.11;78.56
62508;BME280;48556;51.972;4.624;2023-02-15T08:18:16;102585.81;;;6.13;78.81
62508;BME280;48556;51.972;4.624;2023-02-15T08:20:42;102593.81;;;6.18;79.40
62508;BME280;48556;51.972;4.624;2023-02-15T08:23:08;102579.66;;;6.11;79.28
62508;BME280;48556;51.972;4.624;2023-02-15T08:25:33;102584.56;;;6.02;79.63
62508;BME280;48556;51.972;4.624;2023-02-15T08:27:59;102583.59;;;6.24;80.00
62508;BME280;48556;51.972;4.624;2023-02-15T08:30:25;102585.16;;;6.46;78.98
62508;BME280;48556;51.972;4.624;2023-02-15T08:32:50;102568.66;;;6.20;79.77
62508;BME280;48556;51.972;4.624;2023-02-15T08:35:16;102576.19;;;6.38;78.89
62508;BME280;48556;51.972;4.624;2023-02-15T08:37:42;102588.00;;;6.52;78.97
62508;BME280;48556;51.972;4.624;2023-02-15T08:40:08;102571.03;;;6.66;78.55
62508;BME280;48556;51.972;4.624;2023-02-15T08:42:34;102580.00;;;6.75;78.15
62508;BME280;48556;51.972;4.624;2023-02-15T08:45:00;102575.59;;;6.74;78.40
62508;BME280;48556;51.972;4.624;2023-02-15T08:47:27;102568.31;;;6.63;79.01
62508;BME280;48556;51.972;4.624;2023-02-15T08:49:53;102577.00;;;6.35;79.83
62508;BME280;48556;51.972;4.624;2023-02-15T08:52:19;102577.09;;;6.38;80.18
62508;BME280;48556;51.972;4.624;2023-02-15T08:54:44;102574.63;;;6.43;80.30
62508;BME280;48556;51.972;4.624;2023-02-15T08:57:10;102592.91;;;6.43;80.92
62508;BME280;48556;51.972;4.624;2023-02-15T08:59:38;102582.72;;;6.25;81.78
62508;BME280;48556;51.972;4.624;2023-02-15T09:02:05;102597.34;;;5.95;82.54
62508;BME280;48556;51.972;4.624;2023-02-15T09:04:31;102591.84;;;5.86;83.28
62508;BME280;48556;51.972;4.624;2023-02-15T09:06:56;102584.13;;;6.15;83.04
62508;BME280;48556;51.972;4.624;2023-02-15T09:09:22;102576.31;;;6.68;80.78
62508;BME280;48556;51.972;4.624;2023-02-15T09:11:50;102578.50;;;6.28;82.06
62508;BME280;48556;51.972;4.624;2023-02-15T09:14:18;102578.13;;;6.43;82.28
62508;BME280;48556;51.972;4.624;2023-02-15T09:16:52;102575.16;;;6.87;80.98
62508;BME280;48556;51.972;4.624;2023-02-15T09:19:19;102580.06;;;6.49;82.01
62508;BME280;48556;51.972;4.624;2023-02-15T09:21:46;102571.44;;;7.08;81.26
62508;BME280;48556;51.972;4.624;2023-02-15T09:24:14;102581.03;;;7.09;80.68
62508;BME280;48556;51.972;4.624;2023-02-15T09:26:44;102579.22;;;7.35;79.63
62508;BME280;48556;51.972;4.624;2023-02-15T09:29:11;102577.88;;;6.90;81.43
62508;BME280;48556;51.972;4.624;2023-02-15T09:31:40;102575.16;;;7.46;79.78
62508;BME280;48556;51.972;4.624;2023-02-15T09:34:06;102578.00;;;7.84;79.31
62508;BME280;48556;51.972;4.624;2023-02-15T09:36:35;102575.16;;;7.77;78.38
62508;BME280;48556;51.972;4.624;2023-02-15T09:39:22;102572.75;;;8.18;77.88
62508;BME280;48556;51.972;4.624;2023-02-15T09:45:25;102569.78;;;8.74;75.74
62508;BME280;48556;51.972;4.624;2023-02-15T09:56:13;102575.81;;;9.51;73.47
62508;BME280;48556;51.972;4.624;2023-02-15T10:06:38;102573.50;;;9.66;72.90
62508;BME280;48556;51.972;4.624;2023-02-15T10:09:38;102565.72;;;9.27;74.10
62508;BME280;48556;51.972;4.624;2023-02-15T10:20:17;102576.63;;;9.92;70.72
62508;BME280;48556;51.972;4.624;2023-02-15T10:23:02;102576.94;;;10.09;69.27
62508;BME280;48556;51.972;4.624;2023-02-15T10:28:19;102579.91;;;10.30;67.57
62508;BME280;48556;51.972;4.624;2023-02-15T10:30:50;102567.88;;;10.41;67.23
62508;BME280;48556;51.972;4.624;2023-02-15T10:33:38;102572.91;;;10.30;67.12
62508;BME280;48556;51.972;4.624;2023-02-15T10:39:10;102571.13;;;10.83;65.68
62508;BME280;48556;51.972;4.624;2023-02-15T10:50:05;102551.63;;;10.68;67.16
62508;BME280;48556;51.972;4.624;2023-02-15T10:53:24;102554.69;;;10.99;65.73
62508;BME280;48556;51.972;4.624;2023-02-15T11:07:06;102544.00;;;11.57;63.43
62508;BME280;48556;51.972;4.624;2023-02-15T11:09:44;102530.50;;;11.28;62.73
62508;BME280;48556;51.972;4.624;2023-02-15T11:12:18;102524.88;;;11.72;62.55
62508;BME280;48556;51.972;4.624;2023-02-15T11:17:35;102524.06;;;11.81;61.64
62508;BME280;48556;51.972;4.624;2023-02-15T11:20:33;102516.97;;;11.72;61.21
62508;BME280;48556;51.972;4.624;2023-02-15T11:23:02;102524.31;;;11.26;61.95
62508;BME280;48556;51.972;4.624;2023-02-15T11:25:33;102525.84;;;11.82;61.40
62508;BME280;48556;51.972;4.624;2023-02-15T11:28:04;102517.97;;;11.90;60.17
62508;BME280;48556;51.972;4.624;2023-02-15T11:30:54;102517.97;;;11.88;61.31
62508;BME280;48556;51.972;4.624;2023-02-15T11:33:36;102505.81;;;12.01;60.01
62508;BME280;48556;51.972;4.624;2023-02-15T11:36:17;102503.41;;;12.27;59.61
62508;BME280;48556;51.972;4.624;2023-02-15T11:38:52;102500.88;;;12.44;58.18
62508;BME280;48556;51.972;4.624;2023-02-15T11:41:27;102500.00;;;12.44;58.21
62508;BME280;48556;51.972;4.624;2023-02-15T11:46:31;102491.25;;;12.53;57.06
62508;BME280;48556;51.972;4.624;2023-02-15T11:48:57;102502.84;;;12.79;56.37
62508;BME280;48556;51.972;4.624;2023-02-15T11:51:24;102494.72;;;12.44;56.35
62508;BME280;48556;51.972;4.624;2023-02-15T11:53:53;102493.13;;;12.69;56.02
62508;BME280;48556;51.972;4.624;2023-02-15T11:56:23;102492.16;;;12.55;56.23
62508;BME280;48556;51.972;4.624;2023-02-15T11:58:54;102488.34;;;12.12;57.47
62508;BME280;48556;51.972;4.624;2023-02-15T12:09:53;102474.09;;;13.46;53.75
62508;BME280;48556;51.972;4.624;2023-02-15T12:12:30;102478.44;;;13.33;53.26
62508;BME280;48556;51.972;4.624;2023-02-15T12:15:14;102474.97;;;13.40;53.88
62508;BME280;48556;51.972;4.624;2023-02-15T12:22:49;102461.78;;;13.68;52.23
62508;BME280;48556;51.972;4.624;2023-02-15T12:28:05;102454.75;;;13.84;51.84
62508;BME280;48556;51.972;4.624;2023-02-15T12:30:56;102456.53;;;13.82;51.69
62508;BME280;48556;51.972;4.624;2023-02-15T12:33:35;102458.22;;;14.37;50.21
62508;BME280;48556;51.972;4.624;2023-02-15T12:36:18;102458.25;;;14.32;50.29
62508;BME280;48556;51.972;4.624;2023-02-15T12:41:38;102463.50;;;14.45;49.65
62508;BME280;48556;51.972;4.624;2023-02-15T12:44:22;102464.34;;;14.73;49.35
62508;BME280;48556;51.972;4.624;2023-02-15T12:47:05;102462.59;;;14.60;49.15
62508;BME280;48556;51.972;4.624;2023-02-15T12:49:33;102458.19;;;14.69;49.04
62508;BME280;48556;51.972;4.624;2023-02-15T12:52:23;102460.72;;;14.96;48.29
62508;BME280;48556;51.972;4.624;2023-02-15T12:55:19;102455.28;;;15.27;47.15
62508;BME280;48556;51.972;4.624;2023-02-15T12:57:48;102449.75;;;15.61;46.21
62508;BME280;48556;51.972;4.624;2023-02-15T13:02:52;102445.72;;;16.23;44.36
62508;BME280;48556;51.972;4.624;2023-02-15T13:05:41;102441.50;;;16.01;43.67
62508;BME280;48556;51.972;4.624;2023-02-15T13:08:20;102442.97;;;16.33;43.55
62508;BME280;48556;51.972;4.624;2023-02-15T13:10:57;102441.63;;;16.74;42.30
62508;BME280;48556;51.972;4.624;2023-02-15T13:13:27;102439.50;;;17.65;40.94
62508;BME280;48556;51.972;4.624;2023-02-15T13:16:06;102436.56;;;17.80;40.04
62508;BME280;48556;51.972;4.624;2023-02-15T13:18:45;102431.41;;;17.72;39.92
62508;BME280;48556;51.972;4.624;2023-02-15T13:21:31;102427.22;;;17.56;40.78
62508;BME280;48556;51.972;4.624;2023-02-15T13:27:16;102435.28;;;16.05;43.15
62508;BME280;48556;51.972;4.624;2023-02-15T13:29:52;102415.63;;;16.25;43.34
62508;BME280;48556;51.972;4.624;2023-02-15T13:32:37;102418.41;;;16.12;44.14
62508;BME280;48556;51.972;4.624;2023-02-15T13:35:05;102418.38;;;16.14;44.07
62508;BME280;48556;51.972;4.624;2023-02-15T13:40:13;102416.31;;;17.15;42.29
62508;BME280;48556;51.972;4.624;2023-02-15T13:42:56;102413.91;;;16.95;41.87
62508;BME280;48556;51.972;4.624;2023-02-15T13:48:46;102417.13;;;17.22;41.82
62508;BME280;48556;51.972;4.624;2023-02-15T14:00:10;102396.13;;;17.02;42.73
62508;BME280;48556;51.972;4.624;2023-02-15T14:06:12;102388.63;;;16.65;43.59
62508;BME280;48556;51.972;4.624;2023-02-15T14:11:59;102387.22;;;17.06;42.80
62508;BME280;48556;51.972;4.624;2023-02-15T14:15:05;102386.28;;;18.16;40.94
62508;BME280;48556;51.972;4.624;2023-02-15T14:20:49;102386.50;;;20.67;36.11
62508;BME280;48556;51.972;4.624;2023-02-15T14:23:55;102387.25;;;21.84;34.03
62508;BME280;48556;51.972;4.624;2023-02-15T14:27:07;102397.72;;;21.65;33.50
62508;BME280;48556;51.972;4.624;2023-02-15T14:32:07;102402.38;;;19.73;37.34
62508;BME280;48556;51.972;4.624;2023-02-15T14:34:57;102402.78;;;18.35;39.86
62508;BME280;48556;51.972;4.624;2023-02-15T14:49:03;102394.97;;;16.53;43.96
62508;BME280;48556;51.972;4.624;2023-02-15T14:54:10;102393.09;;;15.71;45.99
62508;BME280;48556;51.972;4.624;2023-02-15T15:02:24;102396.59;;;15.79;47.02
62508;BME280;48556;51.972;4.624;2023-02-15T15:05:03;102395.75;;;15.72;47.55
62508;BME280;48556;51.972;4.624;2023-02-15T15:07:45;102382.75;;;15.40;48.36
62508;BME280;48556;51.972;4.624;2023-02-15T15:15:13;102397.00;;;15.27;49.56
62508;BME280;48556;51.972;4.624;2023-02-15T15:25:54;102382.34;;;14.47;52.26
62508;BME280;48556;51.972;4.624;2023-02-15T15:33:46;102381.50;;;14.34;53.70
62508;BME280;48556;51.972;4.624;2023-02-15T15:50:14;102376.31;;;13.66;57.39
62508;BME280;48556;51.972;4.624;2023-02-15T15:52:47;102376.25;;;14.09;56.13
62508;BME280;48556;51.972;4.624;2023-02-15T15:55:18;102370.16;;;13.78;56.61
62508;BME280;48556;51.972;4.624;2023-02-15T15:57:48;102372.81;;;13.87;56.80
62508;BME280;48556;51.972;4.624;2023-02-15T16:00:30;102367.50;;;13.90;56.61
62508;BME280;48556;51.972;4.624;2023-02-15T16:02:57;102366.56;;;14.24;55.67
62508;BME280;48556;51.972;4.624;2023-02-15T16:05:23;102371.88;;;14.04;56.05
62508;BME280;48556;51.972;4.624;2023-02-15T16:07:49;102361.34;;;13.70;56.94
62508;BME280;48556;51.972;4.624;2023-02-15T16:10:29;102358.72;;;13.77;56.81
62508;BME280;48556;51.972;4.624;2023-02-15T16:12:58;102360.47;;;13.78;57.33
62508;BME280;48556;51.972;4.624;2023-02-15T16:19:01;102349.03;;;13.44;58.62
62508;BME280;48556;51.972;4.624;2023-02-15T16:21:35;102347.25;;;13.78;58.01
62508;BME280;48556;51.972;4.624;2023-02-15T16:29:29;102331.41;;;13.67;57.81
62508;BME280;48556;51.972;4.624;2023-02-15T16:34:25;102334.91;;;13.26;58.95
62508;BME280;48556;51.972;4.624;2023-02-15T16:37:18;102333.13;;;13.93;57.71
62508;BME280;48556;51.972;4.624;2023-02-15T16:39:46;102338.38;;;14.07;56.32
62508;BME280;48556;51.972;4.624;2023-02-15T16:42:15;102348.09;;;13.99;56.80
62508;BME280;48556;51.972;4.624;2023-02-15T16:45:25;102350.75;;;13.87;56.92